sensor_id;sensor_type;location;lat;lon;timestamp;P1;durP1;ratioP1;P2;durP2;ratioP2
47365;SDS011;33105;47.964;7.982;2024-03-23T00:55:24;4.22;;;2.08;;
47365;SDS011;33105;47.964;7.982;2024-03-23T00:58:25;5.28;;;2.65;;
47365;SDS011;33105;47.964;7.982;2024-03-23T01:01:26;4.10;;;2.47;;
47365;SDS011;33105;47.964;7.982;2024-03-23T01:04:27;6.63;;;2.10;;
47365;SDS011;33105;47.964;7.982;2024-03-23T01:07:29;3.15;;;2.25;;
47365;SDS011;33105;47.964;7.982;2024-03-23T01:10:30;3.58;;;2.33;;
47365;SDS011;33105;47.964;7.982;2024-03-23T01:13:31;4.45;;;2.00;;
47365;SDS011;33105;47.964;7.982;2024-03-23T01:16:32;4.25;;;1.88;;
47365;SDS011;33105;47.964;7.982;2024-03-23T01:19:33;3.60;;;2.35;;
47365;SDS011;33105;47.964;7.982;2024-03-23T01:22:35;8.55;;;2.78;;
47365;SDS011;33105;47.964;7.982;2024-03-23T01:25:36;6.82;;;2.47;;
47365;SDS011;33105;47.964;7.982;2024-03-23T01:28:37;6.80;;;2.72;;
47365;SDS011;33105;47.964;7.982;2024-03-23T01:31:38;5.28;;;2.78;;
47365;SDS011;33105;47.964;7.982;2024-03-23T01:34:40;29.88;;;3.00;;
47365;SDS011;33105;47.964;7.982;2024-03-23T01:37:42;4.80;;;2.35;;
47365;SDS011;33105;47.964;7.982;2024-03-23T01:40:43;5.35;;;2.83;;
47365;SDS011;33105;47.964;7.982;2024-03-23T01:43:44;6.40;;;2.40;;
47365;SDS011;33105;47.964;7.982;2024-03-23T01:46:45;6.55;;;2.50;;
47365;SDS011;33105;47.964;7.982;2024-03-23T01:49:46;3.25;;;1.95;;
47365;SDS011;33105;47.964;7.982;2024-03-23T01:52:48;6.35;;;2.90;;
47365;SDS011;33105;47.964;7.982;2024-03-23T01:55:49;4.82;;;2.40;;
47365;SDS011;33105;47.964;7.982;2024-03-23T01:58:51;4.35;;;2.75;;
47365;SDS011;33105;47.964;7.982;2024-03-23T02:01:52;7.28;;;3.22;;
47365;SDS011;33105;47.964;7.982;2024-03-23T02:04:56;4.10;;;2.40;;
47365;SDS011;33105;47.964;7.982;2024-03-23T02:07:57;6.65;;;2.00;;
47365;SDS011;33105;47.964;7.982;2024-03-23T02:10:59;4.82;;;2.53;;
47365;SDS011;33105;47.964;7.982;2024-03-23T02:14:00;4.90;;;2.30;;
47365;SDS011;33105;47.964;7.982;2024-03-23T02:17:01;2.60;;;1.83;;
47365;SDS011;33105;47.964;7.982;2024-03-23T02:20:03;4.70;;;2.03;;
47365;SDS011;33105;47.964;7.982;2024-03-23T02:23:13;4.13;;;2.00;;
47365;SDS011;33105;47.964;7.982;2024-03-23T02:26:15;6.30;;;1.90;;
47365;SDS011;33105;47.964;7.982;2024-03-23T02:29:17;4.75;;;2.13;;
47365;SDS011;33105;47.964;7.982;2024-03-23T02:32:20;5.03;;;2.70;;
47365;SDS011;33105;47.964;7.982;2024-03-23T02:35:22;5.90;;;2.10;;
47365;SDS011;33105;47.964;7.982;2024-03-23T02:38:23;5.93;;;2.20;;
47365;SDS011;33105;47.964;7.982;2024-03-23T02:41:24;7.63;;;2.42;;
47365;SDS011;33105;47.964;7.982;2024-03-23T02:44:25;5.05;;;2.22;;
47365;SDS011;33105;47.964;7.982;2024-03-23T02:47:27;3.40;;;1.70;;
47365;SDS011;33105;47.964;7.982;2024-03-23T02:50:28;2.25;;;1.45;;
47365;SDS011;33105;47.964;7.982;2024-03-23T02:53:29;5.97;;;1.60;;
47365;SDS011;33105;47.964;7.982;2024-03-23T02:56:32;5.10;;;2.00;;
47365;SDS011;33105;47.964;7.982;2024-03-23T02:59:33;2.63;;;1.48;;
47365;SDS011;33105;47.964;7.982;2024-03-23T03:02:35;4.97;;;1.80;;
47365;SDS011;33105;47.964;7.982;2024-03-23T03:05:37;6.53;;;2.15;;
47365;SDS011;33105;47.964;7.982;2024-03-23T03:08:38;5.30;;;2.22;;
47365;SDS011;33105;47.964;7.982;2024-03-23T03:11:39;5.90;;;2.40;;
47365;SDS011;33105;47.964;7.982;2024-03-23T03:14:40;3.58;;;1.83;;
47365;SDS011;33105;47.964;7.982;2024-03-23T03:17:41;5.25;;;1.85;;
47365;SDS011;33105;47.964;7.982;2024-03-23T03:20:42;4.63;;;2.13;;
47365;SDS011;33105;47.964;7.982;2024-03-23T03:23:44;8.90;;;2.50;;
47365;SDS011;33105;47.964;7.982;2024-03-23T03:26:45;5.78;;;2.17;;
47365;SDS011;33105;47.964;7.982;2024-03-23T03:29:47;7.03;;;2.25;;
47365;SDS011;33105;47.964;7.982;2024-03-23T03:32:49;4.97;;;2.30;;
47365;SDS011;33105;47.964;7.982;2024-03-23T03:35:50;5.30;;;2.33;;
47365;SDS011;33105;47.964;7.982;2024-03-23T03:38:52;5.15;;;2.05;;
47365;SDS011;33105;47.964;7.982;2024-03-23T03:41:53;8.23;;;2.38;;
47365;SDS011;33105;47.964;7.982;2024-03-23T03:44:55;3.53;;;1.85;;
47365;SDS011;33105;47.964;7.982;2024-03-23T03:47:56;12.25;;;2.55;;
47365;SDS011;33105;47.964;7.982;2024-03-23T03:50:57;8.25;;;2.50;;
47365;SDS011;33105;47.964;7.982;2024-03-23T03:53:58;5.75;;;2.13;;
47365;SDS011;33105;47.964;7.982;2024-03-23T03:56:59;4.93;;;2.70;;
47365;SDS011;33105;47.964;7.982;2024-03-23T04:00:00;9.55;;;2.70;;
47365;SDS011;33105;47.964;7.982;2024-03-23T04:03:02;8.55;;;2.88;;
47365;SDS011;33105;47.964;7.982;2024-03-23T04:06:03;5.38;;;2.50;;
47365;SDS011;33105;47.964;7.982;2024-03-23T04:09:04;6.03;;;2.75;;
47365;SDS011;33105;47.964;7.982;2024-03-23T04:12:07;8.13;;;2.40;;
47365;SDS011;33105;47.964;7.982;2024-03-23T04:15:08;8.43;;;3.00;;
47365;SDS011;33105;47.964;7.982;2024-03-23T04:18:09;5.63;;;2.95;;
47365;SDS011;33105;47.964;7.982;2024-03-23T04:21:10;7.22;;;2.50;;
47365;SDS011;33105;47.964;7.982;2024-03-23T04:24:12;11.23;;;3.85;;
47365;SDS011;33105;47.964;7.982;2024-03-23T04:27:13;8.55;;;3.28;;
47365;SDS011;33105;47.964;7.982;2024-03-23T04:30:14;7.47;;;3.30;;
47365;SDS011;33105;47.964;7.982;2024-03-23T04:33:16;6.63;;;3.70;;
47365;SDS011;33105;47.964;7.982;2024-03-23T04:36:17;7.78;;;4.07;;
47365;SDS011;33105;47.964;7.982;2024-03-23T04:39:20;7.85;;;4.10;;
47365;SDS011;33105;47.964;7.982;2024-03-23T04:42:21;8.63;;;4.07;;
47365;SDS011;33105;47.964;7.982;2024-03-23T04:45:22;9.95;;;3.95;;
47365;SDS011;33105;47.964;7.982;2024-03-23T04:48:24;10.95;;;3.80;;
47365;SDS011;33105;47.964;7.982;2024-03-23T04:51:25;6.80;;;4.50;;
47365;SDS011;33105;47.964;7.982;2024-03-23T04:54:27;10.55;;;4.88;;
47365;SDS011;33105;47.964;7.982;2024-03-23T04:57:29;11.95;;;5.65;;
47365;SDS011;33105;47.964;7.982;2024-03-23T05:00:30;9.88;;;5.20;;
47365;SDS011;33105;47.964;7.982;2024-03-23T05:03:32;10.48;;;5.10;;
47365;SDS011;33105;47.964;7.982;2024-03-23T05:06:33;7.85;;;5.18;;
47365;SDS011;33105;47.964;7.982;2024-03-23T05:09:35;9.88;;;5.65;;
47365;SDS011;33105;47.964;7.982;2024-03-23T05:12:37;13.52;;;6.05;;
47365;SDS011;33105;47.964;7.982;2024-03-23T05:15:38;8.68;;;5.50;;
47365;SDS011;33105;47.964;7.982;2024-03-23T05:18:39;9.88;;;5.90;;
47365;SDS011;33105;47.964;7.982;2024-03-23T05:21:40;13.27;;;5.50;;
47365;SDS011;33105;47.964;7.982;2024-03-23T05:24:42;9.63;;;5.97;;
47365;SDS011;33105;47.964;7.982;2024-03-23T05:27:43;12.40;;;6.07;;
47365;SDS011;33105;47.964;7.982;2024-03-23T05:30:49;8.00;;;5.20;;
47365;SDS011;33105;47.964;7.982;2024-03-23T05:33:51;12.48;;;6.32;;
47365;SDS011;33105;47.964;7.982;2024-03-23T05:36:53;9.27;;;5.90;;
47365;SDS011;33105;47.964;7.982;2024-03-23T05:39:55;9.73;;;5.88;;
47365;SDS011;33105;47.964;7.982;2024-03-23T05:42:56;9.57;;;5.88;;
47365;SDS011;33105;47.964;7.982;2024-03-23T05:45:58;9.68;;;5.25;;
47365;SDS011;33105;47.964;7.982;2024-03-23T05:49:00;6.93;;;5.25;;
47365;SDS011;33105;47.964;7.982;2024-03-23T05:52:03;10.23;;;5.45;;
47365;SDS011;33105;47.964;7.982;2024-03-23T05:55:04;6.28;;;5.03;;
47365;SDS011;33105;47.964;7.982;2024-03-23T05:58:07;10.68;;;4.93;;
47365;SDS011;33105;47.964;7.982;2024-03-23T06:01:08;10.68;;;5.45;;
47365;SDS011;33105;47.964;7.982;2024-03-23T06:04:11;7.20;;;4.60;;
47365;SDS011;33105;47.964;7.982;2024-03-23T06:07:12;7.57;;;5.25;;
47365;SDS011;33105;47.964;7.982;2024-03-23T06:10:14;10.65;;;5.50;;
47365;SDS011;33105;47.964;7.982;2024-03-23T06:13:16;6.43;;;5.00;;
47365;SDS011;33105;47.964;7.982;2024-03-23T06:16:18;8.32;;;5.72;;
47365;SDS011;33105;47.964;7.982;2024-03-23T06:19:24;9.50;;;6.72;;
47365;SDS011;33105;47.964;7.982;2024-03-23T06:22:28;9.95;;;7.60;;
47365;SDS011;33105;47.964;7.982;2024-03-23T06:25:29;9.98;;;7.68;;
47365;SDS011;33105;47.964;7.982;2024-03-23T06:28:30;10.13;;;6.30;;
47365;SDS011;33105;47.964;7.982;2024-03-23T06:31:31;8.75;;;6.35;;
47365;SDS011;33105;47.964;7.982;2024-03-23T06:34:33;10.52;;;6.43;;
47365;SDS011;33105;47.964;7.982;2024-03-23T06:37:35;11.93;;;7.25;;
47365;SDS011;33105;47.964;7.982;2024-03-23T06:40:36;11.02;;;7.45;;
47365;SDS011;33105;47.964;7.982;2024-03-23T06:43:37;7.55;;;5.10;;
47365;SDS011;33105;47.964;7.982;2024-03-23T06:46:38;5.45;;;3.97;;
47365;SDS011;33105;47.964;7.982;2024-03-23T06:49:40;4.07;;;3.03;;
47365;SDS011;33105;47.964;7.982;2024-03-23T06:52:41;3.90;;;2.63;;
47365;SDS011;33105;47.964;7.982;2024-03-23T06:55:42;2.67;;;1.50;;
47365;SDS011;33105;47.964;7.982;2024-03-23T06:58:51;1.75;;;1.13;;
47365;SDS011;33105;47.964;7.982;2024-03-23T07:01:52;2.42;;;0.98;;
47365;SDS011;33105;47.964;7.982;2024-03-23T07:04:54;0.77;;;0.68;;
47365;SDS011;33105;47.964;7.982;2024-03-23T07:07:55;2.05;;;0.60;;
47365;SDS011;33105;47.964;7.982;2024-03-23T07:10:56;1.10;;;0.95;;
47365;SDS011;33105;47.964;7.982;2024-03-23T07:13:58;0.88;;;0.88;;
47365;SDS011;33105;47.964;7.982;2024-03-23T07:16:59;2.38;;;0.60;;
47365;SDS011;33105;47.964;7.982;2024-03-23T07:20:01;0.52;;;0.40;;
47365;SDS011;33105;47.964;7.982;2024-03-23T07:23:04;0.60;;;0.60;;
47365;SDS011;33105;47.964;7.982;2024-03-23T07:26:05;2.00;;;0.60;;
47365;SDS011;33105;47.964;7.982;2024-03-23T07:29:07;2.03;;;0.55;;
47365;SDS011;33105;47.964;7.982;2024-03-23T07:32:08;0.55;;;0.43;;
47365;SDS011;33105;47.964;7.982;2024-03-23T07:35:09;1.10;;;0.30;;
47365;SDS011;33105;47.964;7.982;2024-03-23T07:38:10;0.95;;;0.40;;
47365;SDS011;33105;47.964;7.982;2024-03-23T07:41:14;0.32;;;0.30;;
47365;SDS011;33105;47.964;7.982;2024-03-23T07:44:17;1.85;;;0.30;;
47365;SDS011;33105;47.964;7.982;2024-03-23T07:47:19;0.70;;;0.40;;
47365;SDS011;33105;47.964;7.982;2024-03-23T07:50:20;0.90;;;0.40;;
47365;SDS011;33105;47.964;7.982;2024-03-23T07:53:21;1.42;;;0.28;;
47365;SDS011;33105;47.964;7.982;2024-03-23T07:56:22;0.57;;;0.30;;
47365;SDS011;33105;47.964;7.982;2024-03-23T07:59:24;1.38;;;0.40;;
47365;SDS011;33105;47.964;7.982;2024-03-23T08:02:26;0.43;;;0.30;;
47365;SDS011;33105;47.964;7.982;2024-03-23T08:05:27;0.80;;;0.50;;
47365;SDS011;33105;47.964;7.982;2024-03-23T08:08:28;3.95;;;0.70;;
47365;SDS011;33105;47.964;7.982;2024-03-23T08:11:30;1.55;;;0.40;;
47365;SDS011;33105;47.964;7.982;2024-03-23T08:14:32;1.27;;;0.70;;
47365;SDS011;33105;47.964;7.982;2024-03-23T08:17:33;1.50;;;0.60;;
47365;SDS011;33105;47.964;7.982;2024-03-23T08:20:35;2.05;;;0.55;;
47365;SDS011;33105;47.964;7.982;2024-03-23T08:23:36;3.30;;;0.80;;
47365;SDS011;33105;47.964;7.982;2024-03-23T08:26:38;3.90;;;0.90;;
47365;SDS011;33105;47.964;7.982;2024-03-23T08:29:40;6.70;;;1.42;;
47365;SDS011;33105;47.964;7.982;2024-03-23T08:32:42;5.28;;;1.55;;
47365;SDS011;33105;47.964;7.982;2024-03-23T08:35:52;3.47;;;1.50;;
47365;SDS011;33105;47.964;7.982;2024-03-23T08:39:07;7.50;;;1.75;;
47365;SDS011;33105;47.964;7.982;2024-03-23T08:42:09;5.45;;;1.70;;
47365;SDS011;33105;47.964;7.982;2024-03-23T08:45:10;7.15;;;1.48;;
47365;SDS011;33105;47.964;7.982;2024-03-23T08:48:11;6.35;;;1.67;;
47365;SDS011;33105;47.964;7.982;2024-03-23T08:51:13;9.63;;;2.33;;
47365;SDS011;33105;47.964;7.982;2024-03-23T08:54:15;14.88;;;2.60;;
47365;SDS011;33105;47.964;7.982;2024-03-23T08:57:16;8.45;;;2.10;;
47365;SDS011;33105;47.964;7.982;2024-03-23T09:00:17;8.38;;;2.38;;
47365;SDS011;33105;47.964;7.982;2024-03-23T09:03:18;9.00;;;2.63;;
47365;SDS011;33105;47.964;7.982;2024-03-23T09:06:19;10.98;;;3.10;;
47365;SDS011;33105;47.964;7.982;2024-03-23T09:09:21;12.45;;;2.90;;
47365;SDS011;33105;47.964;7.982;2024-03-23T09:12:23;6.70;;;2.33;;
47365;SDS011;33105;47.964;7.982;2024-03-23T09:15:25;13.07;;;2.55;;
47365;SDS011;33105;47.964;7.982;2024-03-23T09:18:26;6.47;;;2.30;;
47365;SDS011;33105;47.964;7.982;2024-03-23T09:21:27;8.02;;;2.67;;
47365;SDS011;33105;47.964;7.982;2024-03-23T09:24:28;9.27;;;2.38;;
47365;SDS011;33105;47.964;7.982;2024-03-23T09:27:30;9.82;;;3.17;;
47365;SDS011;33105;47.964;7.982;2024-03-23T09:30:31;17.13;;;3.22;;
47365;SDS011;33105;47.964;7.982;2024-03-23T09:33:34;8.52;;;2.97;;
47365;SDS011;33105;47.964;7.982;2024-03-23T09:36:36;10.23;;;2.85;;
47365;SDS011;33105;47.964;7.982;2024-03-23T09:39:37;11.18;;;3.17;;
47365;SDS011;33105;47.964;7.982;2024-03-23T09:42:38;15.73;;;3.20;;
47365;SDS011;33105;47.964;7.982;2024-03-23T09:45:40;10.02;;;2.55;;
47365;SDS011;33105;47.964;7.982;2024-03-23T09:48:42;8.80;;;2.45;;
47365;SDS011;33105;47.964;7.982;2024-03-23T09:51:45;8.73;;;2.55;;
47365;SDS011;33105;47.964;7.982;2024-03-23T09:54:46;12.75;;;2.55;;
47365;SDS011;33105;47.964;7.982;2024-03-23T09:57:47;7.30;;;2.35;;
47365;SDS011;33105;47.964;7.982;2024-03-23T10:00:49;10.07;;;2.45;;
47365;SDS011;33105;47.964;7.982;2024-03-23T10:03:50;9.25;;;2.38;;
47365;SDS011;33105;47.964;7.982;2024-03-23T10:06:51;7.70;;;2.50;;
47365;SDS011;33105;47.964;7.982;2024-03-23T10:09:52;7.78;;;2.35;;
47365;SDS011;33105;47.964;7.982;2024-03-23T10:12:53;9.95;;;2.10;;
47365;SDS011;33105;47.964;7.982;2024-03-23T10:15:55;6.53;;;2.10;;
47365;SDS011;33105;47.964;7.982;2024-03-23T10:18:58;7.97;;;1.75;;
47365;SDS011;33105;47.964;7.982;2024-03-23T10:21:59;6.43;;;1.65;;
47365;SDS011;33105;47.964;7.982;2024-03-23T10:25:07;9.55;;;2.13;;
47365;SDS011;33105;47.964;7.982;2024-03-23T10:28:10;10.50;;;2.28;;
47365;SDS011;33105;47.964;7.982;2024-03-23T10:31:12;9.48;;;1.80;;
47365;SDS011;33105;47.964;7.982;2024-03-23T10:34:13;8.70;;;1.42;;
47365;SDS011;33105;47.964;7.982;2024-03-23T10:37:15;6.10;;;1.80;;
47365;SDS011;33105;47.964;7.982;2024-03-23T10:40:17;7.72;;;1.77;;
47365;SDS011;33105;47.964;7.982;2024-03-23T10:43:19;10.95;;;2.38;;
47365;SDS011;33105;47.964;7.982;2024-03-23T10:46:21;9.57;;;2.40;;
47365;SDS011;33105;47.964;7.982;2024-03-23T10:49:22;7.97;;;2.13;;
47365;SDS011;33105;47.964;7.982;2024-03-23T10:52:24;12.93;;;2.28;;
47365;SDS011;33105;47.964;7.982;2024-03-23T10:55:25;7.00;;;1.58;;
47365;SDS011;33105;47.964;7.982;2024-03-23T10:58:28;8.90;;;1.85;;
47365;SDS011;33105;47.964;7.982;2024-03-23T11:01:32;6.00;;;1.63;;
47365;SDS011;33105;47.964;7.982;2024-03-23T11:04:33;4.28;;;1.55;;
47365;SDS011;33105;47.964;7.982;2024-03-23T11:07:41;7.13;;;1.45;;
47365;SDS011;33105;47.964;7.982;2024-03-23T11:10:51;8.85;;;2.03;;
47365;SDS011;33105;47.964;7.982;2024-03-23T11:13:52;4.93;;;1.90;;
47365;SDS011;33105;47.964;7.982;2024-03-23T11:17:10;2.97;;;1.60;;
47365;SDS011;33105;47.964;7.982;2024-03-23T11:20:12;8.73;;;1.65;;
47365;SDS011;33105;47.964;7.982;2024-03-23T11:23:28;6.03;;;1.65;;
47365;SDS011;33105;47.964;7.982;2024-03-23T11:26:29;6.28;;;1.73;;
47365;SDS011;33105;47.964;7.982;2024-03-23T11:29:31;9.10;;;1.65;;
47365;SDS011;33105;47.964;7.982;2024-03-23T11:32:32;3.65;;;1.40;;
47365;SDS011;33105;47.964;7.982;2024-03-23T11:35:34;1.85;;;1.23;;
47365;SDS011;33105;47.964;7.982;2024-03-23T11:38:38;5.43;;;1.98;;
47365;SDS011;33105;47.964;7.982;2024-03-23T11:44:47;5.03;;;1.33;;
47365;SDS011;33105;47.964;7.982;2024-03-23T11:47:49;5.95;;;2.17;;
47365;SDS011;33105;47.964;7.982;2024-03-23T11:51:02;6.10;;;1.58;;
47365;SDS011;33105;47.964;7.982;2024-03-23T11:54:08;11.40;;;2.20;;
47365;SDS011;33105;47.964;7.982;2024-03-23T11:57:09;4.72;;;1.25;;
47365;SDS011;33105;47.964;7.982;2024-03-23T12:00:20;3.55;;;1.00;;
47365;SDS011;33105;47.964;7.982;2024-03-23T12:03:22;5.05;;;1.00;;
47365;SDS011;33105;47.964;7.982;2024-03-23T12:06:27;2.33;;;1.00;;
47365;SDS011;33105;47.964;7.982;2024-03-23T12:09:29;4.82;;;1.48;;
47365;SDS011;33105;47.964;7.982;2024-03-23T12:12:30;5.22;;;1.08;;
47365;SDS011;33105;47.964;7.982;2024-03-23T12:15:31;5.50;;;1.50;;
47365;SDS011;33105;47.964;7.982;2024-03-23T12:18:32;6.43;;;1.38;;
47365;SDS011;33105;47.964;7.982;2024-03-23T12:21:33;5.93;;;1.55;;
47365;SDS011;33105;47.964;7.982;2024-03-23T12:24:35;11.35;;;2.35;;
47365;SDS011;33105;47.964;7.982;2024-03-23T12:27:36;5.95;;;1.30;;
47365;SDS011;33105;47.964;7.982;2024-03-23T12:30:41;7.15;;;1.83;;
47365;SDS011;33105;47.964;7.982;2024-03-23T12:33:42;10.73;;;2.13;;
47365;SDS011;33105;47.964;7.982;2024-03-23T12:36:45;10.00;;;2.05;;
47365;SDS011;33105;47.964;7.982;2024-03-23T12:39:46;7.72;;;2.00;;
47365;SDS011;33105;47.964;7.982;2024-03-23T12:42:47;7.47;;;1.83;;
47365;SDS011;33105;47.964;7.982;2024-03-23T12:45:49;10.98;;;2.15;;
47365;SDS011;33105;47.964;7.982;2024-03-23T12:48:50;10.98;;;1.80;;
47365;SDS011;33105;47.964;7.982;2024-03-23T12:51:55;9.95;;;2.05;;
47365;SDS011;33105;47.964;7.982;2024-03-23T12:54:57;7.38;;;1.70;;
47365;SDS011;33105;47.964;7.982;2024-03-23T12:57:59;8.32;;;1.90;;
47365;SDS011;33105;47.964;7.982;2024-03-23T13:01:00;8.32;;;1.60;;
47365;SDS011;33105;47.964;7.982;2024-03-23T13:04:01;11.05;;;1.77;;
47365;SDS011;33105;47.964;7.982;2024-03-23T13:07:03;5.95;;;1.48;;
47365;SDS011;33105;47.964;7.982;2024-03-23T13:10:06;8.02;;;1.58;;
47365;SDS011;33105;47.964;7.982;2024-03-23T13:13:07;13.02;;;1.98;;
47365;SDS011;33105;47.964;7.982;2024-03-23T13:16:08;9.13;;;1.55;;
47365;SDS011;33105;47.964;7.982;2024-03-23T13:19:10;7.55;;;1.80;;
47365;SDS011;33105;47.964;7.982;2024-03-23T13:22:11;9.88;;;2.75;;
47365;SDS011;33105;47.964;7.982;2024-03-23T13:25:12;10.25;;;1.88;;
47365;SDS011;33105;47.964;7.982;2024-03-23T13:28:13;11.85;;;1.73;;
47365;SDS011;33105;47.964;7.982;2024-03-23T13:31:14;12.70;;;2.00;;
47365;SDS011;33105;47.964;7.982;2024-03-23T13:34:17;8.82;;;1.88;;
47365;SDS011;33105;47.964;7.982;2024-03-23T13:37:19;7.07;;;1.98;;
47365;SDS011;33105;47.964;7.982;2024-03-23T13:40:20;12.32;;;1.75;;
47365;SDS011;33105;47.964;7.982;2024-03-23T13:43:21;7.20;;;1.65;;
47365;SDS011;33105;47.964;7.982;2024-03-23T13:46:24;11.48;;;1.70;;
47365;SDS011;33105;47.964;7.982;2024-03-23T13:49:29;11.80;;;1.83;;
47365;SDS011;33105;47.964;7.982;2024-03-23T13:52:31;10.55;;;1.85;;
47365;SDS011;33105;47.964;7.982;2024-03-23T13:55:32;6.22;;;1.50;;
47365;SDS011;33105;47.964;7.982;2024-03-23T13:58:33;10.90;;;1.60;;
47365;SDS011;33105;47.964;7.982;2024-03-23T14:01:35;7.70;;;1.48;;
47365;SDS011;33105;47.964;7.982;2024-03-23T14:04:36;8.90;;;1.58;;
47365;SDS011;33105;47.964;7.982;2024-03-23T14:07:39;13.55;;;2.00;;
47365;SDS011;33105;47.964;7.982;2024-03-23T14:10:40;6.47;;;1.30;;
47365;SDS011;33105;47.964;7.982;2024-03-23T14:13:42;8.07;;;1.67;;
47365;SDS011;33105;47.964;7.982;2024-03-23T14:16:43;10.32;;;1.48;;
47365;SDS011;33105;47.964;7.982;2024-03-23T14:19:45;10.30;;;1.80;;
47365;SDS011;33105;47.964;7.982;2024-03-23T14:22:46;11.02;;;1.75;;
47365;SDS011;33105;47.964;7.982;2024-03-23T14:25:47;12.32;;;1.55;;
47365;SDS011;33105;47.964;7.982;2024-03-23T14:28:49;8.80;;;1.33;;
47365;SDS011;33105;47.964;7.982;2024-03-23T14:31:51;9.27;;;1.65;;
47365;SDS011;33105;47.964;7.982;2024-03-23T14:34:52;10.27;;;1.95;;
47365;SDS011;33105;47.964;7.982;2024-03-23T14:37:55;6.78;;;1.65;;
47365;SDS011;33105;47.964;7.982;2024-03-23T14:40:59;6.80;;;1.40;;
47365;SDS011;33105;47.964;7.982;2024-03-23T14:44:03;7.93;;;1.60;;
47365;SDS011;33105;47.964;7.982;2024-03-23T14:47:04;4.88;;;1.38;;
47365;SDS011;33105;47.964;7.982;2024-03-23T14:50:05;7.93;;;1.45;;
47365;SDS011;33105;47.964;7.982;2024-03-23T14:53:09;7.60;;;1.40;;
47365;SDS011;33105;47.964;7.982;2024-03-23T14:56:10;8.05;;;1.17;;
47365;SDS011;33105;47.964;7.982;2024-03-23T14:59:14;8.60;;;1.25;;
47365;SDS011;33105;47.964;7.982;2024-03-23T15:02:15;9.90;;;2.25;;
47365;SDS011;33105;47.964;7.982;2024-03-23T15:05:16;8.30;;;1.67;;
47365;SDS011;33105;47.964;7.982;2024-03-23T15:08:17;4.40;;;1.13;;
47365;SDS011;33105;47.964;7.982;2024-03-23T15:11:18;5.95;;;1.05;;
47365;SDS011;33105;47.964;7.982;2024-03-23T15:14:20;6.35;;;1.20;;
47365;SDS011;33105;47.964;7.982;2024-03-23T15:17:23;5.32;;;1.05;;
47365;SDS011;33105;47.964;7.982;2024-03-23T15:20:26;6.47;;;0.93;;
47365;SDS011;33105;47.964;7.982;2024-03-23T15:23:28;3.95;;;0.93;;
47365;SDS011;33105;47.964;7.982;2024-03-23T15:26:30;5.20;;;1.00;;
47365;SDS011;33105;47.964;7.982;2024-03-23T15:29:31;4.72;;;0.70;;
47365;SDS011;33105;47.964;7.982;2024-03-23T15:32:32;7.40;;;1.27;;
47365;SDS011;33105;47.964;7.982;2024-03-23T15:35:33;4.40;;;1.10;;
47365;SDS011;33105;47.964;7.982;2024-03-23T15:38:34;4.93;;;1.48;;
47365;SDS011;33105;47.964;7.982;2024-03-23T15:41:36;5.05;;;1.05;;
47365;SDS011;33105;47.964;7.982;2024-03-23T15:44:37;5.50;;;1.00;;
47365;SDS011;33105;47.964;7.982;2024-03-23T15:47:39;4.60;;;1.15;;
47365;SDS011;33105;47.964;7.982;2024-03-23T15:50:40;3.83;;;1.00;;
47365;SDS011;33105;47.964;7.982;2024-03-23T15:53:41;5.05;;;0.80;;
47365;SDS011;33105;47.964;7.982;2024-03-23T15:56:42;5.80;;;0.90;;
47365;SDS011;33105;47.964;7.982;2024-03-23T15:59:43;5.43;;;1.20;;
47365;SDS011;33105;47.964;7.982;2024-03-23T16:02:44;6.55;;;1.52;;
47365;SDS011;33105;47.964;7.982;2024-03-23T16:05:53;5.78;;;1.30;;
47365;SDS011;33105;47.964;7.982;2024-03-23T16:08:55;3.28;;;0.98;;
47365;SDS011;33105;47.964;7.982;2024-03-23T16:11:56;4.63;;;1.10;;
47365;SDS011;33105;47.964;7.982;2024-03-23T16:14:57;3.92;;;0.90;;
47365;SDS011;33105;47.964;7.982;2024-03-23T16:17:58;3.35;;;0.90;;
47365;SDS011;33105;47.964;7.982;2024-03-23T16:21:00;5.10;;;0.93;;
47365;SDS011;33105;47.964;7.982;2024-03-23T16:24:06;3.55;;;0.80;;
47365;SDS011;33105;47.964;7.982;2024-03-23T16:27:08;3.70;;;0.70;;
47365;SDS011;33105;47.964;7.982;2024-03-23T16:30:10;2.28;;;0.60;;
47365;SDS011;33105;47.964;7.982;2024-03-23T16:33:12;3.05;;;0.60;;
47365;SDS011;33105;47.964;7.982;2024-03-23T16:36:14;3.33;;;0.70;;
47365;SDS011;33105;47.964;7.982;2024-03-23T16:39:15;1.13;;;0.38;;
47365;SDS011;33105;47.964;7.982;2024-03-23T16:42:16;1.02;;;0.68;;
47365;SDS011;33105;47.964;7.982;2024-03-23T16:45:17;2.47;;;0.60;;
47365;SDS011;33105;47.964;7.982;2024-03-23T16:48:19;0.80;;;0.50;;
47365;SDS011;33105;47.964;7.982;2024-03-23T16:51:20;4.63;;;0.70;;
47365;SDS011;33105;47.964;7.982;2024-03-23T16:54:21;3.53;;;0.80;;
47365;SDS011;33105;47.964;7.982;2024-03-23T16:57:23;3.28;;;0.85;;
47365;SDS011;33105;47.964;7.982;2024-03-23T17:00:24;2.70;;;0.70;;
47365;SDS011;33105;47.964;7.982;2024-03-23T17:03:25;2.92;;;0.80;;
47365;SDS011;33105;47.964;7.982;2024-03-23T17:06:26;1.35;;;0.47;;
47365;SDS011;33105;47.964;7.982;2024-03-23T17:09:28;2.05;;;0.50;;
47365;SDS011;33105;47.964;7.982;2024-03-23T17:12:29;2.47;;;0.82;;
47365;SDS011;33105;47.964;7.982;2024-03-23T17:15:30;2.97;;;0.52;;
47365;SDS011;33105;47.964;7.982;2024-03-23T17:18:31;2.22;;;0.70;;
47365;SDS011;33105;47.964;7.982;2024-03-23T17:21:33;4.25;;;0.75;;
47365;SDS011;33105;47.964;7.982;2024-03-23T17:24:35;2.97;;;0.95;;
47365;SDS011;33105;47.964;7.982;2024-03-23T17:27:36;1.50;;;0.57;;
47365;SDS011;33105;47.964;7.982;2024-03-23T17:30:38;0.70;;;0.45;;
47365;SDS011;33105;47.964;7.982;2024-03-23T17:33:39;1.13;;;0.80;;
47365;SDS011;33105;47.964;7.982;2024-03-23T17:36:40;2.47;;;0.63;;
47365;SDS011;33105;47.964;7.982;2024-03-23T17:39:41;4.40;;;0.77;;
47365;SDS011;33105;47.964;7.982;2024-03-23T17:42:42;3.13;;;0.47;;
47365;SDS011;33105;47.964;7.982;2024-03-23T17:45:44;0.93;;;0.52;;
47365;SDS011;33105;47.964;7.982;2024-03-23T17:48:45;3.17;;;0.65;;
47365;SDS011;33105;47.964;7.982;2024-03-23T17:51:46;2.25;;;0.50;;
47365;SDS011;33105;47.964;7.982;2024-03-23T17:54:47;2.40;;;0.65;;
47365;SDS011;33105;47.964;7.982;2024-03-23T17:57:49;4.38;;;0.68;;
47365;SDS011;33105;47.964;7.982;2024-03-23T18:00:51;6.50;;;0.75;;
47365;SDS011;33105;47.964;7.982;2024-03-23T18:03:55;3.38;;;0.90;;
47365;SDS011;33105;47.964;7.982;2024-03-23T18:06:56;3.65;;;0.60;;
47365;SDS011;33105;47.964;7.982;2024-03-23T18:09:57;3.05;;;0.80;;
47365;SDS011;33105;47.964;7.982;2024-03-23T18:12:59;4.20;;;0.90;;
47365;SDS011;33105;47.964;7.982;2024-03-23T18:16:00;5.55;;;0.88;;
47365;SDS011;33105;47.964;7.982;2024-03-23T18:19:01;6.97;;;2.40;;
47365;SDS011;33105;47.964;7.982;2024-03-23T18:22:02;5.97;;;1.70;;
47365;SDS011;33105;47.964;7.982;2024-03-23T18:25:03;1.90;;;0.70;;
47365;SDS011;33105;47.964;7.982;2024-03-23T18:28:06;4.97;;;2.40;;
47365;SDS011;33105;47.964;7.982;2024-03-23T18:31:07;2.28;;;0.88;;
47365;SDS011;33105;47.964;7.982;2024-03-23T18:34:08;5.55;;;1.75;;
47365;SDS011;33105;47.964;7.982;2024-03-23T18:37:09;8.18;;;1.25;;
47365;SDS011;33105;47.964;7.982;2024-03-23T18:40:11;1.88;;;0.82;;
47365;SDS011;33105;47.964;7.982;2024-03-23T18:43:12;2.50;;;1.02;;
47365;SDS011;33105;47.964;7.982;2024-03-23T18:46:14;7.88;;;0.95;;
47365;SDS011;33105;47.964;7.982;2024-03-23T18:49:15;4.63;;;0.80;;
47365;SDS011;33105;47.964;7.982;2024-03-23T18:52:17;1.27;;;0.70;;
47365;SDS011;33105;47.964;7.982;2024-03-23T18:55:19;3.58;;;0.68;;
47365;SDS011;33105;47.964;7.982;2024-03-23T18:58:21;4.72;;;0.80;;
47365;SDS011;33105;47.964;7.982;2024-03-23T19:01:22;4.85;;;1.15;;
47365;SDS011;33105;47.964;7.982;2024-03-23T19:04:23;2.67;;;1.08;;
47365;SDS011;33105;47.964;7.982;2024-03-23T19:07:24;5.15;;;1.25;;
47365;SDS011;33105;47.964;7.982;2024-03-23T19:10:27;12.15;;;1.55;;